createdAt,value
2022-08-27T00:02:16.636Z,1.63
2022-08-27T00:04:44.495Z,1.50
2022-08-27T00:07:12.547Z,1.48
2022-08-27T00:09:40.326Z,1.50
2022-08-27T00:12:08.550Z,1.65
2022-08-27T00:14:38.729Z,1.60
2022-08-27T00:17:06.949Z,1.25
2022-08-27T00:19:35.921Z,2.22
2022-08-27T00:22:03.683Z,1.13
2022-08-27T00:24:30.434Z,1.40
2022-08-27T00:26:57.371Z,1.73
2022-08-27T00:29:24.127Z,1.40
2022-08-27T00:31:53.428Z,1.10
2022-08-27T00:34:22.349Z,1.20
2022-08-27T00:36:49.767Z,1.17
2022-08-27T00:39:16.484Z,1.20
2022-08-27T00:41:43.513Z,1.42
2022-08-27T00:44:12.214Z,1.35
2022-08-27T00:46:44.472Z,1.30
2022-08-27T00:49:19.189Z,0.80
2022-08-27T00:51:54.534Z,1.17
2022-08-27T00:54:22.150Z,1.50
2022-08-27T00:56:51.393Z,1.52
2022-08-27T00:59:21.663Z,1.50
2022-08-27T01:02:07.016Z,1.60
2022-08-27T01:04:36.088Z,1.50
2022-08-27T01:07:03.381Z,1.27
2022-08-27T01:09:30.591Z,1.33
2022-08-27T01:11:59.169Z,1.40
2022-08-27T01:14:27.332Z,1.30
2022-08-27T01:16:57.312Z,1.20
2022-08-27T01:19:34.514Z,1.20
2022-08-27T01:22:23.320Z,1.60
2022-08-27T01:24:54.097Z,1.63
2022-08-27T01:27:24.880Z,1.30
2022-08-27T01:29:51.714Z,1.50
2022-08-27T01:32:23.902Z,1.30
2022-08-27T01:34:51.576Z,1.42
2022-08-27T01:37:23.735Z,1.15
2022-08-27T01:39:52.014Z,1.42
2022-08-27T01:42:34.347Z,1.25
2022-08-27T01:45:06.184Z,1.30
2022-08-27T01:47:34.493Z,1.30
2022-08-27T01:50:04.107Z,1.55
2022-08-27T01:52:31.533Z,1.55
2022-08-27T01:54:59.295Z,1.70
2022-08-27T01:57:26.524Z,1.70
2022-08-27T01:59:54.697Z,1.83
2022-08-27T02:02:22.801Z,1.45
2022-08-27T02:04:51.041Z,1.30
2022-08-27T02:07:18.511Z,1.25
2022-08-27T02:09:45.462Z,1.70
2022-08-27T02:12:12.159Z,1.58
2022-08-27T02:14:38.901Z,1.60
2022-08-27T02:17:05.675Z,1.80
2022-08-27T02:19:32.458Z,1.75
2022-08-27T02:22:00.566Z,1.52
2022-08-27T02:24:28.598Z,2.03
2022-08-27T02:26:55.592Z,2.22
2022-08-27T02:29:23.206Z,2.13
2022-08-27T02:31:50.831Z,2.00
2022-08-27T02:34:18.721Z,1.90
2022-08-27T02:36:45.958Z,2.15
2022-08-27T02:39:12.868Z,2.13
2022-08-27T02:41:39.552Z,1.65
2022-08-27T02:44:10.155Z,2.10
2022-08-27T02:46:38.906Z,2.10
2022-08-27T02:49:06.546Z,1.88
2022-08-27T02:51:33.466Z,2.63
2022-08-27T02:54:02.375Z,2.17
2022-08-27T02:56:30.082Z,2.25
2022-08-27T02:58:56.793Z,2.05
2022-08-27T03:01:23.527Z,2.17
2022-08-27T03:03:50.363Z,2.45
2022-08-27T03:06:17.101Z,2.20
2022-08-27T03:08:52.560Z,2.45
2022-08-27T03:11:23.183Z,2.53
2022-08-27T03:13:50.157Z,2.20
2022-08-27T03:16:17.092Z,2.13
2022-08-27T03:18:43.867Z,2.60
2022-08-27T03:21:20.287Z,1.85
2022-08-27T03:23:47.592Z,2.22
2022-08-27T03:26:14.735Z,2.10
2022-08-27T03:28:41.563Z,2.15
2022-08-27T03:31:13.734Z,2.28
2022-08-27T03:33:41.220Z,2.30
2022-08-27T03:36:08.861Z,3.00
2022-08-27T03:38:36.137Z,2.13
2022-08-27T03:41:04.246Z,2.05
2022-08-27T03:43:31.348Z,2.05
2022-08-27T03:46:01.314Z,1.95
2022-08-27T03:48:30.691Z,1.58
2022-08-27T03:50:57.893Z,1.90
2022-08-27T03:53:24.927Z,1.50
2022-08-27T03:55:51.613Z,1.88
2022-08-27T03:58:18.392Z,1.73
2022-08-27T04:00:45.415Z,1.90
2022-08-27T04:03:14.231Z,1.60
2022-08-27T04:05:42.183Z,1.75
2022-08-27T04:08:12.925Z,1.40
2022-08-27T04:10:41.189Z,1.88
2022-08-27T04:13:08.000Z,1.65
2022-08-27T04:15:34.707Z,1.60
2022-08-27T04:18:05.084Z,1.60
2022-08-27T04:20:35.590Z,1.77
2022-08-27T04:23:03.139Z,2.03
2022-08-27T04:25:29.889Z,1.90
2022-08-27T04:27:56.624Z,1.70
2022-08-27T04:30:23.516Z,1.85
2022-08-27T04:32:50.782Z,1.42
2022-08-27T04:35:17.846Z,1.75
2022-08-27T04:37:44.706Z,1.40
2022-08-27T04:40:12.698Z,1.60
2022-08-27T04:42:39.562Z,1.90
2022-08-27T04:45:06.723Z,2.53
2022-08-27T04:47:33.449Z,2.83
2022-08-27T04:50:00.214Z,4.90
2022-08-27T04:52:28.438Z,4.53
2022-08-27T04:54:55.551Z,4.53
2022-08-27T04:57:22.264Z,4.28
2022-08-27T04:59:50.860Z,3.85
2022-08-27T05:02:17.678Z,5.13
2022-08-27T05:04:44.455Z,5.00
2022-08-27T05:07:11.319Z,5.60
2022-08-27T05:09:38.919Z,4.85
2022-08-27T05:12:05.922Z,5.57
2022-08-27T05:14:32.853Z,5.07
2022-08-27T05:17:00.191Z,5.10
2022-08-27T05:19:27.405Z,5.30
2022-08-27T05:21:54.292Z,4.70
2022-08-27T05:24:22.124Z,5.10
2022-08-27T05:26:49.287Z,5.53
2022-08-27T05:29:16.706Z,4.55
2022-08-27T05:31:44.258Z,4.75
2022-08-27T05:34:18.659Z,4.15
2022-08-27T05:36:53.424Z,5.20
2022-08-27T05:39:20.282Z,4.68
2022-08-27T05:41:47.042Z,5.75
2022-08-27T05:47:02.901Z,4.75
2022-08-27T05:49:29.580Z,4.65
2022-08-27T05:51:56.308Z,5.20
2022-08-27T05:54:23.767Z,4.82
2022-08-27T05:56:50.631Z,5.00
2022-08-27T05:59:36.819Z,5.75
2022-08-27T06:02:06.322Z,5.07
2022-08-27T06:04:33.891Z,4.90
2022-08-27T06:07:00.937Z,4.40
2022-08-27T06:09:31.713Z,4.25
2022-08-27T06:12:02.190Z,5.07
2022-08-27T06:14:30.026Z,5.15
2022-08-27T06:16:58.731Z,5.63
2022-08-27T06:19:25.596Z,5.68
2022-08-27T06:22:00.237Z,6.05
2022-08-27T06:24:28.971Z,6.25
2022-08-27T06:26:56.400Z,4.57
2022-08-27T06:29:24.759Z,4.72
2022-08-27T06:31:53.100Z,5.30
2022-08-27T06:34:22.987Z,5.85
2022-08-27T06:36:49.871Z,5.80
2022-08-27T06:39:26.043Z,6.10
2022-08-27T06:41:53.165Z,4.55
2022-08-27T06:44:21.110Z,5.80
2022-08-27T06:46:47.915Z,5.43
2022-08-27T06:49:14.663Z,5.57
2022-08-27T06:51:45.820Z,5.82
2022-08-27T06:54:14.194Z,5.45
2022-08-27T06:56:42.506Z,4.80
2022-08-27T06:59:12.365Z,5.47
2022-08-27T07:01:43.444Z,5.68
2022-08-27T07:04:14.307Z,3.78
2022-08-27T07:06:41.872Z,4.68
2022-08-27T07:09:09.767Z,4.18
2022-08-27T07:11:36.905Z,3.30
2022-08-27T07:14:04.419Z,4.30
2022-08-27T07:16:33.772Z,3.30
2022-08-27T07:19:04.049Z,5.07
2022-08-27T07:21:32.687Z,3.75
2022-08-27T07:24:04.848Z,3.47
2022-08-27T07:26:34.927Z,4.17
2022-08-27T07:29:02.601Z,3.63
2022-08-27T07:31:29.578Z,4.45
2022-08-27T07:33:56.450Z,4.60
2022-08-27T07:36:24.069Z,5.25
2022-08-27T07:38:59.201Z,5.40
2022-08-27T07:41:31.196Z,3.70
2022-08-27T07:44:21.116Z,6.85
2022-08-27T07:46:55.706Z,5.88
2022-08-27T07:49:23.831Z,6.18
2022-08-27T07:51:51.383Z,6.07
2022-08-27T07:54:18.658Z,5.82
2022-08-27T07:56:55.339Z,6.95
2022-08-27T07:59:24.977Z,4.45
2022-08-27T08:01:53.461Z,5.80
2022-08-27T08:04:20.898Z,5.20
2022-08-27T08:06:47.843Z,10.10
2022-08-27T08:09:14.673Z,6.53
2022-08-27T08:11:41.759Z,5.63
2022-08-27T08:14:08.593Z,8.25
2022-08-27T08:16:35.380Z,8.45
2022-08-27T08:19:02.248Z,7.03
2022-08-27T08:21:29.671Z,6.28
2022-08-27T08:23:56.744Z,6.30
2022-08-27T08:26:24.836Z,8.70
2022-08-27T08:28:52.674Z,6.55
2022-08-27T08:31:20.298Z,6.68
2022-08-27T08:33:50.442Z,6.85
2022-08-27T08:36:18.427Z,8.45
2022-08-27T08:38:46.690Z,7.15
2022-08-27T08:41:43.868Z,7.22
2022-08-27T08:44:15.386Z,5.53
2022-08-27T08:47:12.447Z,6.07
2022-08-27T08:50:04.637Z,7.07
2022-08-27T08:52:34.726Z,8.00
2022-08-27T08:55:18.765Z,5.35
2022-08-27T08:58:21.733Z,4.60
2022-08-27T09:00:57.812Z,6.47
2022-08-27T09:03:26.779Z,4.28
2022-08-27T09:06:01.177Z,3.65
2022-08-27T09:08:40.524Z,3.58
2022-08-27T09:11:20.478Z,4.15
2022-08-27T09:13:54.836Z,4.55
2022-08-27T09:16:23.417Z,2.85
2022-08-27T09:18:52.627Z,2.78
2022-08-27T09:21:45.997Z,3.30
2022-08-27T09:24:17.027Z,2.53
2022-08-27T09:26:45.043Z,2.53
2022-08-27T09:29:21.956Z,2.22
2022-08-27T09:32:06.191Z,2.45
2022-08-27T09:34:40.455Z,1.90
2022-08-27T09:37:18.714Z,2.83
2022-08-27T09:40:23.790Z,2.25
2022-08-27T09:42:54.297Z,2.58
2022-08-27T09:45:24.965Z,2.33
2022-08-27T09:47:55.092Z,1.92
2022-08-27T09:50:24.805Z,2.22
2022-08-27T09:52:59.182Z,2.22
2022-08-27T09:55:29.785Z,2.13
2022-08-27T09:57:57.223Z,3.50
2022-08-27T10:00:39.637Z,1.48
2022-08-27T10:03:09.431Z,1.93
2022-08-27T10:05:43.892Z,1.60
2022-08-27T10:08:25.248Z,2.67
2022-08-27T10:11:02.985Z,1.75
2022-08-27T10:13:33.497Z,1.50
2022-08-27T10:16:06.125Z,1.90
2022-08-27T10:19:10.026Z,1.52
2022-08-27T10:25:03.867Z,2.33
2022-08-27T10:27:37.178Z,1.77
2022-08-27T10:30:17.256Z,2.63
2022-08-27T10:33:23.712Z,1.60
2022-08-27T10:36:20.289Z,1.83
2022-08-27T10:39:01.378Z,2.78
2022-08-27T10:41:38.399Z,2.00
2022-08-27T10:44:19.638Z,1.73
2022-08-27T10:47:00.695Z,2.33
2022-08-27T10:50:04.975Z,1.77
2022-08-27T10:52:51.662Z,1.98
2022-08-27T10:55:30.476Z,1.23
2022-08-27T10:58:18.693Z,1.70
2022-08-27T11:01:07.157Z,1.30
2022-08-27T11:03:48.053Z,1.35
2022-08-27T11:06:21.695Z,1.55
2022-08-27T11:08:57.940Z,2.28
2022-08-27T11:12:14.627Z,1.40
2022-08-27T11:15:14.681Z,1.30
2022-08-27T11:17:44.895Z,1.67
2022-08-27T11:20:18.922Z,1.63
2022-08-27T11:22:51.543Z,1.45
2022-08-27T11:26:03.622Z,1.58
2022-08-27T11:28:37.580Z,1.67
2022-08-27T11:31:15.315Z,1.73
2022-08-27T11:33:57.479Z,1.58
2022-08-27T11:36:54.178Z,1.48
2022-08-27T11:39:51.541Z,1.30
2022-08-27T11:42:36.185Z,1.73
2022-08-27T11:45:29.890Z,1.85
2022-08-27T11:48:02.936Z,1.70
2022-08-27T11:53:05.952Z,1.33
2022-08-27T11:55:39.080Z,1.50
2022-08-27T11:58:18.146Z,1.52
2022-08-27T12:00:46.909Z,1.83
2022-08-27T12:03:19.875Z,1.73
2022-08-27T12:08:26.347Z,1.48
2022-08-27T12:11:17.359Z,1.50
2022-08-27T12:14:08.830Z,1.55
2022-08-27T12:17:04.074Z,1.75
2022-08-27T12:20:01.824Z,1.38
2022-08-27T12:23:01.878Z,1.55
2022-08-27T12:25:28.801Z,1.90
2022-08-27T12:28:07.935Z,1.35
2022-08-27T12:30:36.148Z,1.60
2022-08-27T12:33:29.967Z,1.98
2022-08-27T12:36:05.714Z,1.80
2022-08-27T12:38:32.595Z,1.35
2022-08-27T12:41:09.276Z,1.40
2022-08-27T12:43:43.997Z,1.55
2022-08-27T12:46:18.542Z,1.73
2022-08-27T12:48:52.034Z,1.50
2022-08-27T12:51:22.398Z,1.60
2022-08-27T12:53:52.650Z,1.27
2022-08-27T12:56:32.472Z,1.70
2022-08-27T12:59:17.845Z,1.20
2022-08-27T13:02:24.741Z,1.90
2022-08-27T13:04:51.875Z,1.58
2022-08-27T13:07:33.043Z,1.20
2022-08-27T13:10:31.883Z,1.80
2022-08-27T13:13:11.557Z,1.10
2022-08-27T13:15:51.228Z,1.42
2022-08-27T13:18:19.046Z,1.45
2022-08-27T13:20:53.302Z,1.42
2022-08-27T13:23:24.121Z,1.55
2022-08-27T13:26:11.420Z,2.22
2022-08-27T13:28:41.387Z,1.45
2022-08-27T13:31:10.402Z,1.67
2022-08-27T13:33:39.855Z,1.20
2022-08-27T13:36:09.430Z,1.50
2022-08-27T13:38:50.148Z,1.10
2022-08-27T13:41:36.747Z,1.50
2022-08-27T13:44:10.650Z,0.77
2022-08-27T13:46:49.628Z,1.33
2022-08-27T13:49:24.368Z,1.13
2022-08-27T13:52:16.707Z,1.38
2022-08-27T13:54:49.419Z,1.42
2022-08-27T13:57:31.364Z,1.50
2022-08-27T14:00:24.235Z,0.93
2022-08-27T14:02:56.267Z,1.40
2022-08-27T14:05:23.341Z,1.20
2022-08-27T14:07:54.855Z,1.20
2022-08-27T14:10:38.144Z,1.10
2022-08-27T14:15:43.714Z,1.58
2022-08-27T14:18:37.171Z,1.20
2022-08-27T14:21:09.480Z,1.45
2022-08-27T14:23:36.160Z,1.60
2022-08-27T14:26:03.455Z,1.80
2022-08-27T14:28:31.769Z,1.10
2022-08-27T14:30:58.719Z,1.20
2022-08-27T14:33:25.875Z,1.67
2022-08-27T14:35:52.647Z,1.20
2022-08-27T14:38:22.804Z,1.10
2022-08-27T14:40:52.289Z,1.17
2022-08-27T14:43:21.064Z,1.23
2022-08-27T14:45:51.713Z,1.58
2022-08-27T14:48:28.757Z,1.40
2022-08-27T14:50:56.843Z,1.58
2022-08-27T14:53:24.274Z,1.42
2022-08-27T14:55:51.995Z,0.98
2022-08-27T14:58:19.832Z,1.30
2022-08-27T15:00:46.945Z,1.42
2022-08-27T15:03:13.773Z,1.23
2022-08-27T15:05:40.614Z,1.30
2022-08-27T15:08:13.324Z,1.50
2022-08-27T15:10:40.400Z,1.25
2022-08-27T15:13:07.299Z,1.00
2022-08-27T15:15:34.193Z,1.10
2022-08-27T15:18:01.007Z,1.20
2022-08-27T15:20:27.971Z,1.30
2022-08-27T15:22:54.739Z,1.25
2022-08-27T15:25:22.667Z,1.63
2022-08-27T15:27:49.883Z,1.20
2022-08-27T15:30:18.395Z,1.40
2022-08-27T15:32:49.324Z,1.40
2022-08-27T15:35:25.401Z,1.27
2022-08-27T15:37:53.841Z,1.75
2022-08-27T15:40:20.850Z,1.65
2022-08-27T15:42:53.671Z,1.20
2022-08-27T15:45:20.670Z,1.60
2022-08-27T15:47:52.398Z,1.88
2022-08-27T15:50:19.327Z,1.58
2022-08-27T15:52:48.863Z,1.45
2022-08-27T15:55:22.705Z,0.98
2022-08-27T15:57:50.070Z,1.58
2022-08-27T16:00:17.890Z,2.05
2022-08-27T16:02:49.411Z,1.60
2022-08-27T16:05:16.882Z,1.17
2022-08-27T16:07:44.798Z,1.13
2022-08-27T16:10:12.628Z,1.55
2022-08-27T16:12:39.488Z,1.10
2022-08-27T16:15:07.579Z,1.33
2022-08-27T16:17:34.907Z,1.20
2022-08-27T16:20:02.050Z,1.27
2022-08-27T16:22:29.108Z,1.30
2022-08-27T16:24:55.952Z,1.20
2022-08-27T16:27:22.747Z,1.30
2022-08-27T16:29:49.503Z,1.15
2022-08-27T16:32:18.892Z,1.38
2022-08-27T16:34:53.276Z,1.50
2022-08-27T16:37:23.532Z,1.25
2022-08-27T16:39:50.325Z,1.92
2022-08-27T16:42:17.254Z,2.75
2022-08-27T16:44:44.046Z,2.03
2022-08-27T16:47:10.855Z,1.45
2022-08-27T16:49:56.463Z,1.60
2022-08-27T16:52:23.666Z,1.30
2022-08-27T16:54:51.708Z,1.67
2022-08-27T16:57:18.523Z,1.52
2022-08-27T16:59:45.807Z,1.65
2022-08-27T17:02:25.523Z,1.35
2022-08-27T17:05:12.349Z,1.80
2022-08-27T17:07:44.140Z,1.05
2022-08-27T17:10:16.005Z,1.13
2022-08-27T17:12:43.223Z,1.27
2022-08-27T17:15:10.124Z,1.20
2022-08-27T17:17:38.963Z,1.80
2022-08-27T17:20:06.990Z,1.30
2022-08-27T17:22:34.923Z,1.60
2022-08-27T17:25:01.807Z,1.40
2022-08-27T17:27:28.519Z,1.95
2022-08-27T17:29:55.349Z,1.70
2022-08-27T17:32:22.271Z,1.70
2022-08-27T17:34:49.013Z,1.58
2022-08-27T17:37:15.790Z,1.50
2022-08-27T17:39:45.522Z,1.40
2022-08-27T17:42:12.386Z,1.40
2022-08-27T17:44:39.458Z,1.55
2022-08-27T17:47:08.317Z,1.13
2022-08-27T17:49:36.269Z,1.35
2022-08-27T17:52:07.392Z,1.30
2022-08-27T17:54:40.114Z,1.52
2022-08-27T17:57:27.515Z,1.45
2022-08-27T17:59:55.558Z,1.35
2022-08-27T18:02:29.679Z,1.33
2022-08-27T18:04:56.879Z,1.75
2022-08-27T18:07:23.990Z,1.15
2022-08-27T18:09:51.777Z,1.40
2022-08-27T18:12:23.765Z,1.60
2022-08-27T18:15:05.469Z,1.80
2022-08-27T18:17:33.007Z,1.60
2022-08-27T18:19:59.878Z,1.67
2022-08-27T18:22:26.815Z,2.38
2022-08-27T18:24:54.197Z,2.38
2022-08-27T18:27:27.250Z,2.00
2022-08-27T18:32:24.191Z,2.17
2022-08-27T18:34:51.886Z,2.70
2022-08-27T18:37:18.579Z,2.35
2022-08-27T18:39:45.360Z,2.38
2022-08-27T18:42:12.935Z,2.65
2022-08-27T18:44:43.155Z,2.17
2022-08-27T18:47:09.975Z,2.05
2022-08-27T18:49:36.666Z,2.10
2022-08-27T18:52:04.461Z,1.90
2022-08-27T18:54:31.765Z,1.73
2022-08-27T18:56:58.485Z,1.75
2022-08-27T18:59:25.857Z,1.67
2022-08-27T19:01:54.047Z,1.63
2022-08-27T19:04:21.435Z,1.67
2022-08-27T19:06:48.422Z,2.30
2022-08-27T19:09:17.887Z,2.08
2022-08-27T19:11:44.656Z,2.00
2022-08-27T19:14:11.387Z,2.30
2022-08-27T19:16:47.729Z,2.25
2022-08-27T19:19:16.869Z,2.45
2022-08-27T19:21:48.005Z,1.85
2022-08-27T19:24:19.025Z,1.85
2022-08-27T19:26:48.536Z,1.85
2022-08-27T19:29:15.791Z,1.77
2022-08-27T19:31:42.642Z,1.60
2022-08-27T19:34:09.608Z,1.67
2022-08-27T19:36:41.262Z,1.55
2022-08-27T19:39:12.078Z,2.00
2022-08-27T19:41:38.942Z,1.70
2022-08-27T19:44:08.598Z,1.92
2022-08-27T19:46:36.725Z,2.00
2022-08-27T19:49:03.907Z,2.15
2022-08-27T19:51:30.850Z,2.20
2022-08-27T19:53:57.560Z,1.80
2022-08-27T19:56:24.362Z,1.80
2022-08-27T19:58:56.600Z,1.80
2022-08-27T20:01:24.450Z,1.55
2022-08-27T20:03:51.409Z,1.98
2022-08-27T20:06:21.594Z,1.73
2022-08-27T20:08:49.894Z,1.75
2022-08-27T20:11:18.286Z,1.73
2022-08-27T20:13:50.605Z,1.27
2022-08-27T20:16:17.911Z,2.28
2022-08-27T20:18:45.157Z,2.20
2022-08-27T20:21:11.910Z,2.05
2022-08-27T20:23:38.566Z,2.47
2022-08-27T20:26:05.341Z,1.92
2022-08-27T20:28:40.315Z,2.35
2022-08-27T20:31:08.338Z,2.25
2022-08-27T20:33:35.026Z,2.47
2022-08-27T20:36:04.991Z,2.53
2022-08-27T20:38:34.838Z,2.22
2022-08-27T20:41:02.479Z,3.22
2022-08-27T20:43:30.086Z,2.20
2022-08-27T20:45:57.112Z,2.25
2022-08-27T20:48:23.903Z,2.10
2022-08-27T20:50:50.791Z,2.88
2022-08-27T20:53:17.557Z,2.22
2022-08-27T20:55:44.277Z,2.13
2022-08-27T20:58:29.352Z,2.50
2022-08-27T21:00:57.625Z,2.78
2022-08-27T21:03:27.487Z,2.75
2022-08-27T21:05:54.355Z,2.45
2022-08-27T21:08:21.911Z,2.83
2022-08-27T21:10:57.029Z,2.40
2022-08-27T21:13:25.175Z,2.28
2022-08-27T21:15:54.633Z,3.33
2022-08-27T21:18:29.318Z,2.63
2022-08-27T21:20:57.218Z,3.83
2022-08-27T21:23:25.319Z,3.03
2022-08-27T21:25:52.027Z,3.33
2022-08-27T21:28:18.709Z,3.72
2022-08-27T21:30:45.527Z,3.38
2022-08-27T21:33:12.277Z,4.20
2022-08-27T21:35:38.973Z,3.97
2022-08-27T21:38:05.790Z,2.85
2022-08-27T21:40:33.169Z,3.35
2022-08-27T21:43:01.999Z,3.33
2022-08-27T21:45:28.713Z,2.88
2022-08-27T21:47:55.610Z,3.38
2022-08-27T21:50:25.892Z,3.17
2022-08-27T21:52:53.819Z,2.85
2022-08-27T21:55:20.776Z,2.95
2022-08-27T21:57:47.748Z,2.60
2022-08-27T22:00:28.368Z,4.63
2022-08-27T22:02:56.459Z,3.20
2022-08-27T22:05:23.717Z,3.22
2022-08-27T22:07:50.356Z,2.63
2022-08-27T22:10:17.389Z,2.40
2022-08-27T22:12:44.282Z,2.60
2022-08-27T22:15:11.111Z,3.20
2022-08-27T22:17:38.021Z,4.32
2022-08-27T22:20:08.034Z,3.47
2022-08-27T22:22:34.958Z,3.13
2022-08-27T22:25:02.136Z,4.63
2022-08-27T22:27:28.913Z,3.05
2022-08-27T22:29:55.777Z,4.13
2022-08-27T22:32:22.693Z,4.57
2022-08-27T22:34:49.459Z,4.03
2022-08-27T22:37:16.249Z,4.00
2022-08-27T22:39:42.985Z,3.95
2022-08-27T22:42:09.773Z,3.70
2022-08-27T22:44:40.696Z,3.33
2022-08-27T22:47:07.426Z,3.63
2022-08-27T22:49:34.273Z,4.50
2022-08-27T22:52:00.950Z,3.95
2022-08-27T22:54:27.674Z,3.65
2022-08-27T22:56:54.376Z,2.78
2022-08-27T22:59:21.068Z,3.60
2022-08-27T23:01:47.960Z,3.42
2022-08-27T23:04:15.823Z,4.15
2022-08-27T23:06:42.635Z,4.47
2022-08-27T23:09:09.506Z,2.88
2022-08-27T23:11:36.228Z,5.20
2022-08-27T23:14:03.203Z,5.47
2022-08-27T23:16:31.846Z,3.35
2022-08-27T23:18:58.654Z,4.65
2022-08-27T23:21:25.755Z,4.57
2022-08-27T23:23:52.499Z,6.50
2022-08-27T23:26:37.863Z,4.35
2022-08-27T23:29:05.568Z,4.53
2022-08-27T23:31:32.393Z,3.67
2022-08-27T23:33:59.085Z,3.03
2022-08-27T23:36:26.305Z,3.22
2022-08-27T23:38:53.073Z,4.20
2022-08-27T23:41:19.757Z,2.72
2022-08-27T23:43:46.660Z,3.85
2022-08-27T23:46:13.489Z,2.60
2022-08-27T23:48:40.654Z,3.20
2022-08-27T23:51:08.036Z,2.42
2022-08-27T23:53:36.990Z,2.80
2022-08-27T23:56:04.085Z,2.35
2022-08-27T23:58:30.799Z,2.83
